sensor_id;sensor_type;location;lat;lon;timestamp;pressure;altitude;pressure_sealevel;temperature
67509;BMP280;54354;44.724;11.284;2023-10-08T00:00:26;102320.66;;;25.63
67509;BMP280;54354;44.724;11.284;2023-10-08T00:03:09;102324.13;;;25.64
67509;BMP280;54354;44.724;11.284;2023-10-08T00:05:40;102320.06;;;25.54
67509;BMP280;54354;44.724;11.284;2023-10-08T00:08:06;102321.09;;;25.62
67509;BMP280;54354;44.724;11.284;2023-10-08T00:10:36;102308.47;;;25.53
67509;BMP280;54354;44.724;11.284;2023-10-08T00:13:13;102306.97;;;25.52
67509;BMP280;54354;44.724;11.284;2023-10-08T00:15:41;102313.41;;;25.55
67509;BMP280;54354;44.724;11.284;2023-10-08T00:18:20;102309.66;;;25.52
67509;BMP280;54354;44.724;11.284;2023-10-08T00:20:50;102315.09;;;25.52
67509;BMP280;54354;44.724;11.284;2023-10-08T00:23:44;102319.84;;;25.57
67509;BMP280;54354;44.724;11.284;2023-10-08T00:26:25;102323.22;;;25.52
67509;BMP280;54354;44.724;11.284;2023-10-08T00:29:00;102311.59;;;25.46
67509;BMP280;54354;44.724;11.284;2023-10-08T00:31:27;102303.16;;;25.44
67509;BMP280;54354;44.724;11.284;2023-10-08T00:33:57;102315.53;;;25.45
67509;BMP280;54354;44.724;11.284;2023-10-08T00:36:23;102300.66;;;25.40
67509;BMP280;54354;44.724;11.284;2023-10-08T00:38:50;102305.56;;;25.36
67509;BMP280;54354;44.724;11.284;2023-10-08T00:41:19;102299.44;;;25.41
67509;BMP280;54354;44.724;11.284;2023-10-08T00:43:48;102304.06;;;25.35
67509;BMP280;54354;44.724;11.284;2023-10-08T00:46:16;102301.28;;;25.30
67509;BMP280;54354;44.724;11.284;2023-10-08T00:48:53;102300.06;;;25.31
67509;BMP280;54354;44.724;11.284;2023-10-08T00:51:25;102297.28;;;25.97
67509;BMP280;54354;44.724;11.284;2023-10-08T00:54:03;102292.38;;;25.49
67509;BMP280;54354;44.724;11.284;2023-10-08T00:56:36;102302.09;;;25.36
67509;BMP280;54354;44.724;11.284;2023-10-08T00:59:20;102311.19;;;25.33
67509;BMP280;54354;44.724;11.284;2023-10-08T01:01:48;102305.88;;;25.24
67509;BMP280;54354;44.724;11.284;2023-10-08T01:04:18;102309.63;;;25.26
67509;BMP280;54354;44.724;11.284;2023-10-08T01:06:47;102310.53;;;25.23
67509;BMP280;54354;44.724;11.284;2023-10-08T01:09:14;102303.66;;;25.22
67509;BMP280;54354;44.724;11.284;2023-10-08T01:11:44;102313.97;;;25.18
67509;BMP280;54354;44.724;11.284;2023-10-08T01:14:19;102306.47;;;25.13
67509;BMP280;54354;44.724;11.284;2023-10-08T01:16:47;102306.03;;;25.14
67509;BMP280;54354;44.724;11.284;2023-10-08T01:19:18;102296.59;;;25.10
67509;BMP280;54354;44.724;11.284;2023-10-08T01:21:45;102293.66;;;25.13
67509;BMP280;54354;44.724;11.284;2023-10-08T01:24:10;102299.09;;;25.13
67509;BMP280;54354;44.724;11.284;2023-10-08T01:26:42;102287.72;;;25.09
67509;BMP280;54354;44.724;11.284;2023-10-08T01:29:11;102282.50;;;25.06
67509;BMP280;54354;44.724;11.284;2023-10-08T01:31:47;102283.97;;;25.07
67509;BMP280;54354;44.724;11.284;2023-10-08T01:34:18;102290.63;;;25.06
67509;BMP280;54354;44.724;11.284;2023-10-08T01:36:44;102301.75;;;25.08
67509;BMP280;54354;44.724;11.284;2023-10-08T01:39:11;102299.97;;;25.05
67509;BMP280;54354;44.724;11.284;2023-10-08T01:41:43;102294.00;;;25.01
67509;BMP280;54354;44.724;11.284;2023-10-08T01:44:09;102297.75;;;25.03
67509;BMP280;54354;44.724;11.284;2023-10-08T01:46:35;102301.41;;;25.00
67509;BMP280;54354;44.724;11.284;2023-10-08T01:49:01;102289.53;;;24.98
67509;BMP280;54354;44.724;11.284;2023-10-08T01:51:34;102286.84;;;24.98
67509;BMP280;54354;44.724;11.284;2023-10-08T01:54:04;102281.69;;;25.00
67509;BMP280;54354;44.724;11.284;2023-10-08T01:56:37;102269.00;;;24.91
67509;BMP280;54354;44.724;11.284;2023-10-08T01:59:03;102273.88;;;24.87
67509;BMP280;54354;44.724;11.284;2023-10-08T02:01:29;102276.56;;;24.87
67509;BMP280;54354;44.724;11.284;2023-10-08T02:03:55;102279.00;;;24.85
67509;BMP280;54354;44.724;11.284;2023-10-08T02:06:21;102276.03;;;24.83
67509;BMP280;54354;44.724;11.284;2023-10-08T02:08:47;102280.97;;;24.84
67509;BMP280;54354;44.724;11.284;2023-10-08T02:11:13;102270.34;;;24.81
67509;BMP280;54354;44.724;11.284;2023-10-08T02:13:41;102268.31;;;24.76
67509;BMP280;54354;44.724;11.284;2023-10-08T02:16:09;102269.81;;;24.77
67509;BMP280;54354;44.724;11.284;2023-10-08T02:18:34;102261.38;;;24.75
67509;BMP280;54354;44.724;11.284;2023-10-08T02:21:00;102256.91;;;24.72
67509;BMP280;54354;44.724;11.284;2023-10-08T02:23:25;102261.88;;;24.73
67509;BMP280;54354;44.724;11.284;2023-10-08T02:25:53;102260.09;;;24.70
67509;BMP280;54354;44.724;11.284;2023-10-08T02:28:20;102247.47;;;24.67
67509;BMP280;54354;44.724;11.284;2023-10-08T02:30:46;102241.53;;;24.63
67509;BMP280;54354;44.724;11.284;2023-10-08T02:33:11;102244.22;;;24.63
67509;BMP280;54354;44.724;11.284;2023-10-08T02:35:45;102246.19;;;24.63
67509;BMP280;54354;44.724;11.284;2023-10-08T02:38:13;102259.00;;;24.62
67509;BMP280;54354;44.724;11.284;2023-10-08T02:40:41;102265.44;;;24.65
67509;BMP280;54354;44.724;11.284;2023-10-08T02:43:16;102261.91;;;24.58
67509;BMP280;54354;44.724;11.284;2023-10-08T02:45:44;102252.09;;;24.46
67509;BMP280;54354;44.724;11.284;2023-10-08T02:48:14;102266.00;;;24.54
67509;BMP280;54354;44.724;11.284;2023-10-08T02:50:41;102253.13;;;24.49
67509;BMP280;54354;44.724;11.284;2023-10-08T02:53:07;102267.13;;;24.47
67509;BMP280;54354;44.724;11.284;2023-10-08T02:55:43;102265.91;;;24.48
67509;BMP280;54354;44.724;11.284;2023-10-08T02:58:13;102266.13;;;24.45
67509;BMP280;54354;44.724;11.284;2023-10-08T03:00:48;102277.59;;;24.40
67509;BMP280;54354;44.724;11.284;2023-10-08T03:03:15;102267.53;;;24.40
67509;BMP280;54354;44.724;11.284;2023-10-08T03:05:59;102257.25;;;24.44
67509;BMP280;54354;44.724;11.284;2023-10-08T03:08:25;102263.59;;;24.41
67509;BMP280;54354;44.724;11.284;2023-10-08T03:10:52;102252.66;;;24.36
67509;BMP280;54354;44.724;11.284;2023-10-08T03:13:28;102256.88;;;24.37
67509;BMP280;54354;44.724;11.284;2023-10-08T03:15:54;102250.91;;;24.33
67509;BMP280;54354;44.724;11.284;2023-10-08T03:18:23;102251.41;;;24.31
67509;BMP280;54354;44.724;11.284;2023-10-08T03:20:48;102251.84;;;24.30
67509;BMP280;54354;44.724;11.284;2023-10-08T03:23:16;102237.00;;;24.25
67509;BMP280;54354;44.724;11.284;2023-10-08T03:25:54;102236.44;;;24.21
67509;BMP280;54354;44.724;11.284;2023-10-08T03:28:37;102246.63;;;24.26
67509;BMP280;54354;44.724;11.284;2023-10-08T03:31:04;102249.25;;;24.20
67509;BMP280;54354;44.724;11.284;2023-10-08T03:33:42;102249.69;;;24.19
67509;BMP280;54354;44.724;11.284;2023-10-08T03:36:09;102244.56;;;24.21
67509;BMP280;54354;44.724;11.284;2023-10-08T03:38:54;102256.88;;;24.22
67509;BMP280;54354;44.724;11.284;2023-10-08T03:41:22;102248.94;;;24.18
67509;BMP280;54354;44.724;11.284;2023-10-08T03:43:53;102244.47;;;24.15
67509;BMP280;54354;44.724;11.284;2023-10-08T03:46:21;102240.00;;;24.12
67509;BMP280;54354;44.724;11.284;2023-10-08T03:48:49;102241.69;;;24.10
67509;BMP280;54354;44.724;11.284;2023-10-08T03:51:17;102244.13;;;24.08
67509;BMP280;54354;44.724;11.284;2023-10-08T03:53:47;102236.56;;;24.12
67509;BMP280;54354;44.724;11.284;2023-10-08T03:56:32;102246.81;;;24.08
67509;BMP280;54354;44.724;11.284;2023-10-08T03:59:02;102246.03;;;24.07
67509;BMP280;54354;44.724;11.284;2023-10-08T04:01:41;102244.78;;;24.03
67509;BMP280;54354;44.724;11.284;2023-10-08T04:04:07;102248.88;;;23.98
67509;BMP280;54354;44.724;11.284;2023-10-08T04:06:40;102251.41;;;24.02
67509;BMP280;54354;44.724;11.284;2023-10-08T04:09:13;102252.59;;;24.01
67509;BMP280;54354;44.724;11.284;2023-10-08T04:11:45;102251.84;;;24.00
67509;BMP280;54354;44.724;11.284;2023-10-08T04:14:24;102240.94;;;23.94
67509;BMP280;54354;44.724;11.284;2023-10-08T04:16:51;102230.84;;;23.95
67509;BMP280;54354;44.724;11.284;2023-10-08T04:19:21;102234.47;;;23.92
67509;BMP280;54354;44.724;11.284;2023-10-08T04:21:55;102237.47;;;23.94
67509;BMP280;54354;44.724;11.284;2023-10-08T04:24:22;102228.16;;;23.95
67509;BMP280;54354;44.724;11.284;2023-10-08T04:26:56;102233.28;;;23.93
67509;BMP280;54354;44.724;11.284;2023-10-08T04:29:27;102239.63;;;23.90
67509;BMP280;54354;44.724;11.284;2023-10-08T04:31:58;102249.78;;;23.95
67509;BMP280;54354;44.724;11.284;2023-10-08T04:34:28;102233.94;;;23.88
67509;BMP280;54354;44.724;11.284;2023-10-08T04:36:54;102239.06;;;23.86
67509;BMP280;54354;44.724;11.284;2023-10-08T04:39:22;102229.34;;;23.79
67509;BMP280;54354;44.724;11.284;2023-10-08T04:41:52;102236.09;;;23.84
67509;BMP280;54354;44.724;11.284;2023-10-08T04:44:25;102226.22;;;23.81
67509;BMP280;54354;44.724;11.284;2023-10-08T04:46:51;102230.38;;;23.82
67509;BMP280;54354;44.724;11.284;2023-10-08T04:49:18;102230.09;;;23.80
67509;BMP280;54354;44.724;11.284;2023-10-08T04:51:55;102231.63;;;23.81
67509;BMP280;54354;44.724;11.284;2023-10-08T04:54:28;102240.09;;;23.74
67509;BMP280;54354;44.724;11.284;2023-10-08T04:57:00;102244.75;;;23.73
67509;BMP280;54354;44.724;11.284;2023-10-08T04:59:27;102240.19;;;23.79
67509;BMP280;54354;44.724;11.284;2023-10-08T05:02:07;102226.56;;;23.74
67509;BMP280;54354;44.724;11.284;2023-10-08T05:04:52;102230.56;;;23.78
67509;BMP280;54354;44.724;11.284;2023-10-08T05:07:20;102231.69;;;23.72
67509;BMP280;54354;44.724;11.284;2023-10-08T05:10:04;102244.44;;;23.71
67509;BMP280;54354;44.724;11.284;2023-10-08T05:12:33;102235.56;;;23.71
67509;BMP280;54354;44.724;11.284;2023-10-08T05:15:36;102235.88;;;23.73
67509;BMP280;54354;44.724;11.284;2023-10-08T05:18:06;102248.91;;;23.74
67509;BMP280;54354;44.724;11.284;2023-10-08T05:20:55;102233.19;;;23.73
67509;BMP280;54354;44.724;11.284;2023-10-08T05:23:25;102244.00;;;23.73
67509;BMP280;54354;44.724;11.284;2023-10-08T05:25:57;102242.84;;;23.64
67509;BMP280;54354;44.724;11.284;2023-10-08T05:28:29;102254.22;;;23.68
67509;BMP280;54354;44.724;11.284;2023-10-08T05:30:56;102251.72;;;23.65
67509;BMP280;54354;44.724;11.284;2023-10-08T05:33:47;102260.09;;;23.67
67509;BMP280;54354;44.724;11.284;2023-10-08T05:36:40;102246.31;;;23.65
67509;BMP280;54354;44.724;11.284;2023-10-08T05:39:16;102245.56;;;23.64
67509;BMP280;54354;44.724;11.284;2023-10-08T05:42:00;102248.25;;;23.64
67509;BMP280;54354;44.724;11.284;2023-10-08T05:44:45;102257.59;;;23.63
67509;BMP280;54354;44.724;11.284;2023-10-08T05:47:46;102271.25;;;23.69
67509;BMP280;54354;44.724;11.284;2023-10-08T05:50:31;102274.97;;;23.72
67509;BMP280;54354;44.724;11.284;2023-10-08T05:53:20;102273.00;;;23.72
67509;BMP280;54354;44.724;11.284;2023-10-08T05:56:06;102277.22;;;23.73
67509;BMP280;54354;44.724;11.284;2023-10-08T05:58:51;102272.53;;;23.74
67509;BMP280;54354;44.724;11.284;2023-10-08T06:01:36;102272.34;;;23.77
67509;BMP280;54354;44.724;11.284;2023-10-08T06:04:06;102277.31;;;23.79
67509;BMP280;54354;44.724;11.284;2023-10-08T06:07:06;102278.16;;;23.85
67509;BMP280;54354;44.724;11.284;2023-10-08T06:09:42;102272.91;;;23.81
67509;BMP280;54354;44.724;11.284;2023-10-08T06:12:16;102275.91;;;23.83
67509;BMP280;54354;44.724;11.284;2023-10-08T06:14:55;102277.06;;;23.91
67509;BMP280;54354;44.724;11.284;2023-10-08T06:17:33;102274.97;;;23.86
67509;BMP280;54354;44.724;11.284;2023-10-08T06:20:11;102281.72;;;23.91
67509;BMP280;54354;44.724;11.284;2023-10-08T06:22:42;102282.00;;;23.93
67509;BMP280;54354;44.724;11.284;2023-10-08T06:25:08;102293.69;;;23.99
67509;BMP280;54354;44.724;11.284;2023-10-08T06:27:51;102289.84;;;24.06
67509;BMP280;54354;44.724;11.284;2023-10-08T06:30:24;102291.06;;;24.05
67509;BMP280;54354;44.724;11.284;2023-10-08T06:32:54;102287.78;;;24.01
67509;BMP280;54354;44.724;11.284;2023-10-08T06:35:21;102304.41;;;24.08
67509;BMP280;54354;44.724;11.284;2023-10-08T06:37:52;102302.84;;;24.16
67509;BMP280;54354;44.724;11.284;2023-10-08T06:40:21;102300.13;;;24.16
67509;BMP280;54354;44.724;11.284;2023-10-08T06:43:16;102301.41;;;24.36
67509;BMP280;54354;44.724;11.284;2023-10-08T06:45:47;102297.13;;;24.44
67509;BMP280;54354;44.724;11.284;2023-10-08T06:48:20;102291.59;;;24.53
67509;BMP280;54354;44.724;11.284;2023-10-08T06:50:47;102292.72;;;24.61
67509;BMP280;54354;44.724;11.284;2023-10-08T06:53:13;102297.53;;;24.72
67509;BMP280;54354;44.724;11.284;2023-10-08T06:55:40;102301.38;;;24.80
67509;BMP280;54354;44.724;11.284;2023-10-08T06:58:07;102304.50;;;24.93
67509;BMP280;54354;44.724;11.284;2023-10-08T07:00:40;102304.34;;;25.02
67509;BMP280;54354;44.724;11.284;2023-10-08T07:03:13;102300.03;;;25.10
67509;BMP280;54354;44.724;11.284;2023-10-08T07:05:45;102286.78;;;25.12
67509;BMP280;54354;44.724;11.284;2023-10-08T07:08:22;102301.75;;;25.28
67509;BMP280;54354;44.724;11.284;2023-10-08T07:10:51;102310.47;;;25.38
67509;BMP280;54354;44.724;11.284;2023-10-08T07:13:18;102311.28;;;25.44
67509;BMP280;54354;44.724;11.284;2023-10-08T07:15:50;102302.19;;;25.47
67509;BMP280;54354;44.724;11.284;2023-10-08T07:18:16;102308.25;;;25.57
67509;BMP280;54354;44.724;11.284;2023-10-08T07:20:51;102306.34;;;25.63
67509;BMP280;54354;44.724;11.284;2023-10-08T07:23:23;102310.81;;;25.66
67509;BMP280;54354;44.724;11.284;2023-10-08T07:26:02;102302.47;;;25.69
67509;BMP280;54354;44.724;11.284;2023-10-08T07:28:41;102301.78;;;25.74
67509;BMP280;54354;44.724;11.284;2023-10-08T07:31:22;102310.50;;;25.84
67509;BMP280;54354;44.724;11.284;2023-10-08T07:33:50;102313.28;;;25.90
67509;BMP280;54354;44.724;11.284;2023-10-08T07:36:28;102312.59;;;25.95
67509;BMP280;54354;44.724;11.284;2023-10-08T07:38:56;102319.81;;;26.03
67509;BMP280;54354;44.724;11.284;2023-10-08T07:41:22;102324.53;;;26.08
67509;BMP280;54354;44.724;11.284;2023-10-08T07:43:49;102314.41;;;26.09
67509;BMP280;54354;44.724;11.284;2023-10-08T07:46:25;102313.03;;;26.19
67509;BMP280;54354;44.724;11.284;2023-10-08T07:48:55;102312.56;;;26.21
67509;BMP280;54354;44.724;11.284;2023-10-08T07:51:21;102320.09;;;26.37
67509;BMP280;54354;44.724;11.284;2023-10-08T07:53:52;102313.19;;;26.41
67509;BMP280;54354;44.724;11.284;2023-10-08T07:56:22;102323.94;;;26.56
67509;BMP280;54354;44.724;11.284;2023-10-08T07:58:49;102327.69;;;26.64
67509;BMP280;54354;44.724;11.284;2023-10-08T08:01:15;102320.59;;;26.72
67509;BMP280;54354;44.724;11.284;2023-10-08T08:03:40;102309.72;;;26.84
67509;BMP280;54354;44.724;11.284;2023-10-08T08:06:11;102316.50;;;26.99
67509;BMP280;54354;44.724;11.284;2023-10-08T08:08:39;102313.59;;;27.09
67509;BMP280;54354;44.724;11.284;2023-10-08T08:11:08;102317.31;;;27.22
67509;BMP280;54354;44.724;11.284;2023-10-08T08:13:44;102306.00;;;27.35
67509;BMP280;54354;44.724;11.284;2023-10-08T08:16:14;102303.78;;;27.39
67509;BMP280;54354;44.724;11.284;2023-10-08T08:18:48;102302.81;;;27.48
67509;BMP280;54354;44.724;11.284;2023-10-08T08:21:15;102297.66;;;27.55
67509;BMP280;54354;44.724;11.284;2023-10-08T08:23:43;102305.78;;;27.61
67509;BMP280;54354;44.724;11.284;2023-10-08T08:26:20;102314.47;;;27.65
67509;BMP280;54354;44.724;11.284;2023-10-08T08:28:56;102306.81;;;27.75
67509;BMP280;54354;44.724;11.284;2023-10-08T08:31:26;102296.41;;;27.79
67509;BMP280;54354;44.724;11.284;2023-10-08T08:33:53;102307.06;;;27.88
67509;BMP280;54354;44.724;11.284;2023-10-08T08:36:23;102295.19;;;27.85
67509;BMP280;54354;44.724;11.284;2023-10-08T08:38:49;102307.06;;;27.93
67509;BMP280;54354;44.724;11.284;2023-10-08T08:41:16;102297.16;;;27.96
67509;BMP280;54354;44.724;11.284;2023-10-08T08:43:48;102296.66;;;27.97
67509;BMP280;54354;44.724;11.284;2023-10-08T08:46:15;102304.09;;;28.02
67509;BMP280;54354;44.724;11.284;2023-10-08T08:48:42;102314.25;;;28.02
67509;BMP280;54354;44.724;11.284;2023-10-08T08:51:10;102309.53;;;28.02
67509;BMP280;54354;44.724;11.284;2023-10-08T08:53:36;102304.13;;;27.97
67509;BMP280;54354;44.724;11.284;2023-10-08T08:56:02;102308.31;;;27.98
67509;BMP280;54354;44.724;11.284;2023-10-08T08:58:32;102301.13;;;27.89
67509;BMP280;54354;44.724;11.284;2023-10-08T09:00:59;102293.19;;;27.91
67509;BMP280;54354;44.724;11.284;2023-10-08T09:03:25;102295.69;;;27.95
67509;BMP280;54354;44.724;11.284;2023-10-08T09:05:58;102293.94;;;27.97
67509;BMP280;54354;44.724;11.284;2023-10-08T09:08:28;102287.50;;;27.95
67509;BMP280;54354;44.724;11.284;2023-10-08T09:11:00;102282.34;;;27.97
67509;BMP280;54354;44.724;11.284;2023-10-08T09:13:34;102282.34;;;27.97
67509;BMP280;54354;44.724;11.284;2023-10-08T09:16:14;102287.25;;;28.04
67509;BMP280;54354;44.724;11.284;2023-10-08T09:18:44;102283.28;;;28.05
67509;BMP280;54354;44.724;11.284;2023-10-08T09:21:16;102287.25;;;28.04
67509;BMP280;54354;44.724;11.284;2023-10-08T09:23:49;102288.97;;;28.01
67509;BMP280;54354;44.724;11.284;2023-10-08T09:26:25;102282.53;;;28.05
67509;BMP280;54354;44.724;11.284;2023-10-08T09:28:52;102295.16;;;28.13
67509;BMP280;54354;44.724;11.284;2023-10-08T09:31:23;102279.56;;;28.08
67509;BMP280;54354;44.724;11.284;2023-10-08T09:33:55;102282.03;;;28.17
67509;BMP280;54354;44.724;11.284;2023-10-08T09:36:22;102282.03;;;28.23
67509;BMP280;54354;44.724;11.284;2023-10-08T09:39:03;102279.81;;;28.27
67509;BMP280;54354;44.724;11.284;2023-10-08T09:41:35;102275.56;;;28.31
67509;BMP280;54354;44.724;11.284;2023-10-08T09:44:02;102276.06;;;28.36
67509;BMP280;54354;44.724;11.284;2023-10-08T09:46:33;102268.13;;;28.38
67509;BMP280;54354;44.724;11.284;2023-10-08T09:49:07;102265.41;;;28.43
67509;BMP280;54354;44.724;11.284;2023-10-08T09:51:37;102259.44;;;28.45
67509;BMP280;54354;44.724;11.284;2023-10-08T09:56:40;102263.81;;;28.59
67509;BMP280;54354;44.724;11.284;2023-10-08T09:59:06;102267.56;;;28.61
67509;BMP280;54354;44.724;11.284;2023-10-08T10:01:37;102266.06;;;28.60
67509;BMP280;54354;44.724;11.284;2023-10-08T10:04:09;102258.13;;;28.62
67509;BMP280;54354;44.724;11.284;2023-10-08T10:06:36;102262.81;;;28.73
67509;BMP280;54354;44.724;11.284;2023-10-08T10:09:02;102267.25;;;28.76
67509;BMP280;54354;44.724;11.284;2023-10-08T10:11:31;102262.75;;;28.84
67509;BMP280;54354;44.724;11.284;2023-10-08T10:14:01;102254.31;;;28.82
67509;BMP280;54354;44.724;11.284;2023-10-08T10:16:27;102263.47;;;28.90
67509;BMP280;54354;44.724;11.284;2023-10-08T10:18:59;102259.75;;;28.88
67509;BMP280;54354;44.724;11.284;2023-10-08T10:21:32;102260.47;;;28.94
67509;BMP280;54354;44.724;11.284;2023-10-08T10:23:59;102256.00;;;28.96
67509;BMP280;54354;44.724;11.284;2023-10-08T10:26:28;102261.44;;;28.96
67509;BMP280;54354;44.724;11.284;2023-10-08T10:31:56;102234.81;;;29.14
67509;BMP280;54354;44.724;11.284;2023-10-08T10:34:26;102236.78;;;29.13
67509;BMP280;54354;44.724;11.284;2023-10-08T10:36:59;102232.13;;;29.08
67509;BMP280;54354;44.724;11.284;2023-10-08T10:39:28;102228.06;;;29.20
67509;BMP280;54354;44.724;11.284;2023-10-08T10:42:00;102229.31;;;29.19
67509;BMP280;54354;44.724;11.284;2023-10-08T10:44:32;102224.09;;;29.21
67509;BMP280;54354;44.724;11.284;2023-10-08T10:47:02;102220.06;;;29.28
67509;BMP280;54354;44.724;11.284;2023-10-08T10:49:44;102220.28;;;29.30
67509;BMP280;54354;44.724;11.284;2023-10-08T10:52:22;102215.06;;;29.32
67509;BMP280;54354;44.724;11.284;2023-10-08T10:55:02;102218.03;;;29.34
67509;BMP280;54354;44.724;11.284;2023-10-08T10:57:49;102213.03;;;29.38
67509;BMP280;54354;44.724;11.284;2023-10-08T11:00:42;102208.28;;;29.44
67509;BMP280;54354;44.724;11.284;2023-10-08T11:03:09;102203.03;;;29.46
67509;BMP280;54354;44.724;11.284;2023-10-08T11:05:51;102194.56;;;29.50
67509;BMP280;54354;44.724;11.284;2023-10-08T11:08:20;102193.56;;;29.53
67509;BMP280;54354;44.724;11.284;2023-10-08T11:10:49;102190.31;;;29.54
67509;BMP280;54354;44.724;11.284;2023-10-08T11:13:19;102190.25;;;29.60
67509;BMP280;54354;44.724;11.284;2023-10-08T11:15:49;102178.88;;;29.56
67509;BMP280;54354;44.724;11.284;2023-10-08T11:18:21;102185.53;;;29.60
67509;BMP280;54354;44.724;11.284;2023-10-08T11:20:48;102189.97;;;29.63
67509;BMP280;54354;44.724;11.284;2023-10-08T11:23:36;102172.56;;;29.67
67509;BMP280;54354;44.724;11.284;2023-10-08T11:26:06;102183.28;;;29.65
67509;BMP280;54354;44.724;11.284;2023-10-08T11:28:36;102172.81;;;29.69
67509;BMP280;54354;44.724;11.284;2023-10-08T11:31:24;102177.47;;;29.74
67509;BMP280;54354;44.724;11.284;2023-10-08T11:33:50;102176.69;;;29.79
67509;BMP280;54354;44.724;11.284;2023-10-08T11:36:23;102159.53;;;29.78
67509;BMP280;54354;44.724;11.284;2023-10-08T11:39:12;102147.84;;;29.78
67509;BMP280;54354;44.724;11.284;2023-10-08T11:42:03;102143.25;;;29.91
67509;BMP280;54354;44.724;11.284;2023-10-08T11:44:33;102147.03;;;29.88
67509;BMP280;54354;44.724;11.284;2023-10-08T11:47:03;102141.28;;;29.92
67509;BMP280;54354;44.724;11.284;2023-10-08T11:49:51;102138.47;;;29.98
67509;BMP280;54354;44.724;11.284;2023-10-08T11:53:02;102128.44;;;30.06
67509;BMP280;54354;44.724;11.284;2023-10-08T11:55:36;102141.81;;;30.09
67509;BMP280;54354;44.724;11.284;2023-10-08T11:58:05;102133.34;;;30.07
67509;BMP280;54354;44.724;11.284;2023-10-08T12:01:00;102126.59;;;30.14
67509;BMP280;54354;44.724;11.284;2023-10-08T12:03:32;102128.75;;;30.21
67509;BMP280;54354;44.724;11.284;2023-10-08T12:06:00;102122.94;;;30.24
67509;BMP280;54354;44.724;11.284;2023-10-08T12:08:27;102122.66;;;30.28
67509;BMP280;54354;44.724;11.284;2023-10-08T12:10:53;102121.84;;;30.33
67509;BMP280;54354;44.724;11.284;2023-10-08T12:13:25;102125.25;;;30.39
67509;BMP280;54354;44.724;11.284;2023-10-08T12:15:52;102108.09;;;30.39
67509;BMP280;54354;44.724;11.284;2023-10-08T12:18:22;102118.44;;;30.46
67509;BMP280;54354;44.724;11.284;2023-10-08T12:20:51;102123.59;;;30.49
67509;BMP280;54354;44.724;11.284;2023-10-08T12:23:16;102110.91;;;30.52
67509;BMP280;54354;44.724;11.284;2023-10-08T12:25:54;102095.53;;;30.49
67509;BMP280;54354;44.724;11.284;2023-10-08T12:28:22;102093.97;;;30.53
67509;BMP280;54354;44.724;11.284;2023-10-08T12:30:49;102089.97;;;30.54
67509;BMP280;54354;44.724;11.284;2023-10-08T12:33:20;102090.94;;;30.57
67509;BMP280;54354;44.724;11.284;2023-10-08T12:35:47;102097.47;;;30.67
67509;BMP280;54354;44.724;11.284;2023-10-08T12:38:13;102090.84;;;30.63
67509;BMP280;54354;44.724;11.284;2023-10-08T12:40:42;102088.59;;;30.61
67509;BMP280;54354;44.724;11.284;2023-10-08T12:43:22;102081.59;;;30.66
67509;BMP280;54354;44.724;11.284;2023-10-08T12:45:53;102088.47;;;30.72
67509;BMP280;54354;44.724;11.284;2023-10-08T12:48:26;102080.88;;;30.65
67509;BMP280;54354;44.724;11.284;2023-10-08T12:50:55;102084.47;;;30.73
67509;BMP280;54354;44.724;11.284;2023-10-08T12:53:27;102074.56;;;30.70
67509;BMP280;54354;44.724;11.284;2023-10-08T12:55:59;102072.03;;;30.72
67509;BMP280;54354;44.724;11.284;2023-10-08T12:58:31;102076.03;;;30.71
67509;BMP280;54354;44.724;11.284;2023-10-08T13:01:00;102073.00;;;30.75
67509;BMP280;54354;44.724;11.284;2023-10-08T13:03:29;102069.75;;;30.76
67509;BMP280;54354;44.724;11.284;2023-10-08T13:05:58;102068.25;;;30.75
67509;BMP280;54354;44.724;11.284;2023-10-08T13:08:30;102068.34;;;30.70
67509;BMP280;54354;44.724;11.284;2023-10-08T13:11:00;102066.88;;;30.69
67509;BMP280;54354;44.724;11.284;2023-10-08T13:13:27;102063.09;;;30.72
67509;BMP280;54354;44.724;11.284;2023-10-08T13:15:53;102067.84;;;30.71
67509;BMP280;54354;44.724;11.284;2023-10-08T13:18:22;102054.38;;;30.73
67509;BMP280;54354;44.724;11.284;2023-10-08T13:20:54;102051.97;;;30.83
67509;BMP280;54354;44.724;11.284;2023-10-08T13:23:22;102054.16;;;30.84
67509;BMP280;54354;44.724;11.284;2023-10-08T13:25:53;102053.56;;;30.91
67509;BMP280;54354;44.724;11.284;2023-10-08T13:28:29;102050.94;;;30.99
67509;BMP280;54354;44.724;11.284;2023-10-08T13:30:54;102049.13;;;31.02
67509;BMP280;54354;44.724;11.284;2023-10-08T13:33:23;102041.66;;;31.02
67509;BMP280;54354;44.724;11.284;2023-10-08T13:35:49;102039.16;;;31.04
67509;BMP280;54354;44.724;11.284;2023-10-08T13:38:19;102043.03;;;31.09
67509;BMP280;54354;44.724;11.284;2023-10-08T13:40:46;102038.00;;;31.13
67509;BMP280;54354;44.724;11.284;2023-10-08T13:43:34;102032.53;;;31.13
67509;BMP280;54354;44.724;11.284;2023-10-08T13:46:07;102036.00;;;31.13
67509;BMP280;54354;44.724;11.284;2023-10-08T13:48:38;102031.84;;;31.20
67509;BMP280;54354;44.724;11.284;2023-10-08T13:51:04;102022.59;;;31.23
67509;BMP280;54354;44.724;11.284;2023-10-08T13:53:31;102022.59;;;31.23
67509;BMP280;54354;44.724;11.284;2023-10-08T13:56:00;102022.41;;;31.21
67509;BMP280;54354;44.724;11.284;2023-10-08T13:58:27;102013.16;;;31.24
67509;BMP280;54354;44.724;11.284;2023-10-08T14:00:58;102013.34;;;31.26
67509;BMP280;54354;44.724;11.284;2023-10-08T14:03:29;102013.34;;;31.26
67509;BMP280;54354;44.724;11.284;2023-10-08T14:05:58;102016.19;;;31.34
67509;BMP280;54354;44.724;11.284;2023-10-08T14:08:31;102004.19;;;31.91
67509;BMP280;54354;44.724;11.284;2023-10-08T14:10:57;102006.03;;;31.55
67509;BMP280;54354;44.724;11.284;2023-10-08T14:13:32;102003.53;;;31.44
67509;BMP280;54354;44.724;11.284;2023-10-08T14:16:01;102008.69;;;31.47